sensor_id;sensor_type;location;lat;lon;timestamp;P1;durP1;ratioP1;P2;durP2;ratioP2
28343;SDS011;15597;50.914;6.638;2023-05-10T00:01:21;8.65;;;3.40;;
28343;SDS011;15597;50.914;6.638;2023-05-10T00:03:47;3.70;;;2.00;;
28343;SDS011;15597;50.914;6.638;2023-05-10T00:06:12;4.40;;;2.22;;
28343;SDS011;15597;50.914;6.638;2023-05-10T00:08:38;3.90;;;1.88;;
28343;SDS011;15597;50.914;6.638;2023-05-10T00:11:03;10.52;;;4.43;;
28343;SDS011;15597;50.914;6.638;2023-05-10T00:13:29;4.50;;;2.50;;
28343;SDS011;15597;50.914;6.638;2023-05-10T00:15:55;7.35;;;3.88;;
28343;SDS011;15597;50.914;6.638;2023-05-10T00:18:20;6.32;;;2.63;;
28343;SDS011;15597;50.914;6.638;2023-05-10T00:20:46;4.38;;;2.30;;
28343;SDS011;15597;50.914;6.638;2023-05-10T00:23:12;5.10;;;2.38;;
28343;SDS011;15597;50.914;6.638;2023-05-10T00:25:37;5.00;;;3.10;;
28343;SDS011;15597;50.914;6.638;2023-05-10T00:28:03;4.68;;;2.63;;
28343;SDS011;15597;50.914;6.638;2023-05-10T00:30:29;4.63;;;2.30;;
28343;SDS011;15597;50.914;6.638;2023-05-10T00:32:55;9.90;;;5.30;;
28343;SDS011;15597;50.914;6.638;2023-05-10T00:35:20;5.80;;;2.92;;
28343;SDS011;15597;50.914;6.638;2023-05-10T00:37:47;3.90;;;1.90;;
28343;SDS011;15597;50.914;6.638;2023-05-10T00:40:12;5.50;;;1.95;;
28343;SDS011;15597;50.914;6.638;2023-05-10T00:42:39;5.53;;;3.17;;
28343;SDS011;15597;50.914;6.638;2023-05-10T00:45:06;8.32;;;4.57;;
28343;SDS011;15597;50.914;6.638;2023-05-10T00:47:32;5.78;;;2.60;;
28343;SDS011;15597;50.914;6.638;2023-05-10T00:49:58;8.43;;;4.18;;
28343;SDS011;15597;50.914;6.638;2023-05-10T00:52:26;5.88;;;2.85;;
28343;SDS011;15597;50.914;6.638;2023-05-10T00:54:52;6.43;;;3.28;;
28343;SDS011;15597;50.914;6.638;2023-05-10T00:57:19;7.53;;;4.53;;
28343;SDS011;15597;50.914;6.638;2023-05-10T00:59:44;5.65;;;2.83;;
28343;SDS011;15597;50.914;6.638;2023-05-10T01:02:11;6.95;;;3.92;;
28343;SDS011;15597;50.914;6.638;2023-05-10T01:04:38;6.47;;;2.92;;
28343;SDS011;15597;50.914;6.638;2023-05-10T01:07:04;5.40;;;3.00;;
28343;SDS011;15597;50.914;6.638;2023-05-10T01:09:30;9.80;;;4.68;;
28343;SDS011;15597;50.914;6.638;2023-05-10T01:11:57;4.40;;;2.40;;
28343;SDS011;15597;50.914;6.638;2023-05-10T01:14:23;4.97;;;2.33;;
28343;SDS011;15597;50.914;6.638;2023-05-10T01:16:50;5.78;;;3.17;;
28343;SDS011;15597;50.914;6.638;2023-05-10T01:22:00;5.65;;;2.60;;
28343;SDS011;15597;50.914;6.638;2023-05-10T01:24:40;5.07;;;2.92;;
28343;SDS011;15597;50.914;6.638;2023-05-10T01:27:19;8.52;;;4.13;;
28343;SDS011;15597;50.914;6.638;2023-05-10T01:36:02;7.57;;;3.00;;
28343;SDS011;15597;50.914;6.638;2023-05-10T01:38:30;5.75;;;3.00;;
28343;SDS011;15597;50.914;6.638;2023-05-10T01:43:40;5.35;;;2.92;;
28343;SDS011;15597;50.914;6.638;2023-05-10T01:46:15;7.93;;;3.63;;
28343;SDS011;15597;50.914;6.638;2023-05-10T01:48:47;5.25;;;2.30;;
28343;SDS011;15597;50.914;6.638;2023-05-10T01:51:18;9.02;;;4.28;;
28343;SDS011;15597;50.914;6.638;2023-05-10T01:53:48;6.47;;;3.00;;
28343;SDS011;15597;50.914;6.638;2023-05-10T01:56:16;5.75;;;2.70;;
28343;SDS011;15597;50.914;6.638;2023-05-10T01:58:47;7.13;;;4.15;;
28343;SDS011;15597;50.914;6.638;2023-05-10T02:01:15;5.80;;;2.90;;
28343;SDS011;15597;50.914;6.638;2023-05-10T02:06:08;5.55;;;2.85;;
28343;SDS011;15597;50.914;6.638;2023-05-10T02:08:38;9.02;;;4.60;;
28343;SDS011;15597;50.914;6.638;2023-05-10T02:11:05;7.15;;;3.78;;
28343;SDS011;15597;50.914;6.638;2023-05-10T02:13:32;4.63;;;2.55;;
28343;SDS011;15597;50.914;6.638;2023-05-10T02:16:02;10.63;;;4.00;;
28343;SDS011;15597;50.914;6.638;2023-05-10T02:18:30;6.53;;;3.47;;
28343;SDS011;15597;50.914;6.638;2023-05-10T02:20:58;5.53;;;2.65;;
28343;SDS011;15597;50.914;6.638;2023-05-10T02:23:25;13.00;;;4.45;;
28343;SDS011;15597;50.914;6.638;2023-05-10T02:25:51;8.32;;;3.63;;
28343;SDS011;15597;50.914;6.638;2023-05-10T02:28:20;5.68;;;2.78;;
28343;SDS011;15597;50.914;6.638;2023-05-10T02:30:47;5.90;;;3.00;;
28343;SDS011;15597;50.914;6.638;2023-05-10T02:33:13;6.93;;;3.00;;
28343;SDS011;15597;50.914;6.638;2023-05-10T02:35:39;4.38;;;2.33;;
28343;SDS011;15597;50.914;6.638;2023-05-10T02:38:07;5.50;;;2.40;;
28343;SDS011;15597;50.914;6.638;2023-05-10T02:40:35;4.30;;;2.30;;
28343;SDS011;15597;50.914;6.638;2023-05-10T02:43:01;5.70;;;2.80;;
28343;SDS011;15597;50.914;6.638;2023-05-10T02:45:30;6.68;;;2.83;;
28343;SDS011;15597;50.914;6.638;2023-05-10T02:47:57;6.88;;;2.30;;
28343;SDS011;15597;50.914;6.638;2023-05-10T02:50:24;5.75;;;2.72;;
28343;SDS011;15597;50.914;6.638;2023-05-10T02:52:52;5.10;;;2.40;;
28343;SDS011;15597;50.914;6.638;2023-05-10T02:55:25;5.82;;;2.67;;
28343;SDS011;15597;50.914;6.638;2023-05-10T02:58:00;6.15;;;2.35;;
28343;SDS011;15597;50.914;6.638;2023-05-10T03:00:26;4.85;;;2.30;;
28343;SDS011;15597;50.914;6.638;2023-05-10T03:02:52;6.45;;;3.25;;
28343;SDS011;15597;50.914;6.638;2023-05-10T03:05:19;6.60;;;2.20;;
28343;SDS011;15597;50.914;6.638;2023-05-10T03:07:45;6.60;;;2.80;;
28343;SDS011;15597;50.914;6.638;2023-05-10T03:10:12;4.07;;;2.03;;
28343;SDS011;15597;50.914;6.638;2023-05-10T03:12:56;4.90;;;2.30;;
28343;SDS011;15597;50.914;6.638;2023-05-10T03:17:54;7.03;;;3.05;;
28343;SDS011;15597;50.914;6.638;2023-05-10T03:20:31;5.63;;;2.97;;
28343;SDS011;15597;50.914;6.638;2023-05-10T03:23:13;9.18;;;3.70;;
28343;SDS011;15597;50.914;6.638;2023-05-10T03:25:42;10.25;;;4.43;;
28343;SDS011;15597;50.914;6.638;2023-05-10T03:28:10;6.15;;;2.33;;
28343;SDS011;15597;50.914;6.638;2023-05-10T03:30:37;9.73;;;3.28;;
28343;SDS011;15597;50.914;6.638;2023-05-10T03:33:07;6.97;;;3.15;;
28343;SDS011;15597;50.914;6.638;2023-05-10T03:35:36;5.35;;;2.80;;
28343;SDS011;15597;50.914;6.638;2023-05-10T03:38:02;7.50;;;3.63;;
28343;SDS011;15597;50.914;6.638;2023-05-10T03:40:28;5.28;;;2.58;;
28343;SDS011;15597;50.914;6.638;2023-05-10T03:42:56;7.30;;;3.63;;
28343;SDS011;15597;50.914;6.638;2023-05-10T03:45:22;9.45;;;4.95;;
28343;SDS011;15597;50.914;6.638;2023-05-10T03:47:48;12.23;;;6.35;;
28343;SDS011;15597;50.914;6.638;2023-05-10T03:50:13;8.25;;;4.40;;
28343;SDS011;15597;50.914;6.638;2023-05-10T03:52:39;10.15;;;5.82;;
28343;SDS011;15597;50.914;6.638;2023-05-10T03:55:05;9.32;;;4.60;;
28343;SDS011;15597;50.914;6.638;2023-05-10T03:57:31;6.85;;;3.22;;
28343;SDS011;15597;50.914;6.638;2023-05-10T03:59:57;11.25;;;5.35;;
28343;SDS011;15597;50.914;6.638;2023-05-10T04:02:23;8.43;;;3.92;;
28343;SDS011;15597;50.914;6.638;2023-05-10T04:04:48;7.20;;;3.58;;
28343;SDS011;15597;50.914;6.638;2023-05-10T04:07:14;10.23;;;4.82;;
28343;SDS011;15597;50.914;6.638;2023-05-10T04:09:40;11.55;;;4.57;;
28343;SDS011;15597;50.914;6.638;2023-05-10T04:12:05;8.75;;;4.30;;
28343;SDS011;15597;50.914;6.638;2023-05-10T04:14:31;6.00;;;3.30;;
28343;SDS011;15597;50.914;6.638;2023-05-10T04:16:57;11.55;;;4.70;;
28343;SDS011;15597;50.914;6.638;2023-05-10T04:19:22;7.38;;;3.65;;
28343;SDS011;15597;50.914;6.638;2023-05-10T04:21:48;9.65;;;4.47;;
28343;SDS011;15597;50.914;6.638;2023-05-10T04:24:13;7.95;;;3.40;;
28343;SDS011;15597;50.914;6.638;2023-05-10T04:26:39;8.48;;;3.85;;
28343;SDS011;15597;50.914;6.638;2023-05-10T04:29:05;6.65;;;3.20;;
28343;SDS011;15597;50.914;6.638;2023-05-10T04:31:31;7.15;;;3.55;;
28343;SDS011;15597;50.914;6.638;2023-05-10T04:33:56;10.02;;;4.07;;
28343;SDS011;15597;50.914;6.638;2023-05-10T04:36:22;6.75;;;3.53;;
28343;SDS011;15597;50.914;6.638;2023-05-10T04:38:48;7.05;;;3.72;;
28343;SDS011;15597;50.914;6.638;2023-05-10T04:41:13;10.32;;;5.35;;
28343;SDS011;15597;50.914;6.638;2023-05-10T04:43:39;8.52;;;4.10;;
28343;SDS011;15597;50.914;6.638;2023-05-10T04:46:04;10.30;;;5.15;;
28343;SDS011;15597;50.914;6.638;2023-05-10T04:48:31;10.63;;;4.47;;
28343;SDS011;15597;50.914;6.638;2023-05-10T04:50:56;11.77;;;6.15;;
28343;SDS011;15597;50.914;6.638;2023-05-10T04:53:22;9.45;;;4.20;;
28343;SDS011;15597;50.914;6.638;2023-05-10T04:55:48;11.13;;;3.97;;
28343;SDS011;15597;50.914;6.638;2023-05-10T04:58:14;6.35;;;3.38;;
28343;SDS011;15597;50.914;6.638;2023-05-10T05:00:40;14.70;;;7.55;;
28343;SDS011;15597;50.914;6.638;2023-05-10T05:03:05;9.80;;;5.70;;
28343;SDS011;15597;50.914;6.638;2023-05-10T05:05:31;11.20;;;5.07;;
28343;SDS011;15597;50.914;6.638;2023-05-10T05:07:56;11.73;;;6.00;;
28343;SDS011;15597;50.914;6.638;2023-05-10T05:10:22;13.65;;;6.18;;
28343;SDS011;15597;50.914;6.638;2023-05-10T05:12:48;9.70;;;3.55;;
28343;SDS011;15597;50.914;6.638;2023-05-10T05:15:13;9.75;;;4.70;;
28343;SDS011;15597;50.914;6.638;2023-05-10T05:17:40;9.35;;;3.63;;
28343;SDS011;15597;50.914;6.638;2023-05-10T05:20:06;13.93;;;6.00;;
28343;SDS011;15597;50.914;6.638;2023-05-10T05:22:32;9.90;;;4.38;;
28343;SDS011;15597;50.914;6.638;2023-05-10T05:24:57;9.65;;;4.20;;
28343;SDS011;15597;50.914;6.638;2023-05-10T05:27:23;14.43;;;6.10;;
28343;SDS011;15597;50.914;6.638;2023-05-10T05:29:54;8.95;;;4.25;;
28343;SDS011;15597;50.914;6.638;2023-05-10T05:32:20;8.68;;;4.10;;
28343;SDS011;15597;50.914;6.638;2023-05-10T05:34:47;10.35;;;5.50;;
28343;SDS011;15597;50.914;6.638;2023-05-10T05:37:16;11.95;;;5.30;;
28343;SDS011;15597;50.914;6.638;2023-05-10T05:39:43;10.10;;;4.65;;
28343;SDS011;15597;50.914;6.638;2023-05-10T05:42:09;13.07;;;5.55;;
28343;SDS011;15597;50.914;6.638;2023-05-10T05:44:35;8.23;;;4.15;;
28343;SDS011;15597;50.914;6.638;2023-05-10T05:47:01;9.07;;;3.60;;
28343;SDS011;15597;50.914;6.638;2023-05-10T05:49:26;8.20;;;4.10;;
28343;SDS011;15597;50.914;6.638;2023-05-10T05:51:52;8.82;;;4.20;;
28343;SDS011;15597;50.914;6.638;2023-05-10T05:54:18;11.75;;;5.82;;
28343;SDS011;15597;50.914;6.638;2023-05-10T05:56:43;10.63;;;5.50;;
28343;SDS011;15597;50.914;6.638;2023-05-10T05:59:09;15.13;;;6.80;;
28343;SDS011;15597;50.914;6.638;2023-05-10T06:01:35;12.85;;;5.28;;
28343;SDS011;15597;50.914;6.638;2023-05-10T06:04:01;10.38;;;4.93;;
28343;SDS011;15597;50.914;6.638;2023-05-10T06:06:27;12.02;;;5.45;;
28343;SDS011;15597;50.914;6.638;2023-05-10T06:08:52;8.02;;;4.15;;
28343;SDS011;15597;50.914;6.638;2023-05-10T06:11:18;11.38;;;6.05;;
28343;SDS011;15597;50.914;6.638;2023-05-10T06:13:44;9.80;;;5.22;;
28343;SDS011;15597;50.914;6.638;2023-05-10T06:16:09;8.55;;;4.03;;
28343;SDS011;15597;50.914;6.638;2023-05-10T06:18:35;10.55;;;4.47;;
28343;SDS011;15597;50.914;6.638;2023-05-10T06:21:01;18.60;;;8.23;;
28343;SDS011;15597;50.914;6.638;2023-05-10T06:23:26;12.25;;;6.15;;
28343;SDS011;15597;50.914;6.638;2023-05-10T06:25:52;13.88;;;6.25;;
28343;SDS011;15597;50.914;6.638;2023-05-10T06:28:18;11.23;;;5.35;;
28343;SDS011;15597;50.914;6.638;2023-05-10T06:30:43;8.98;;;4.25;;
28343;SDS011;15597;50.914;6.638;2023-05-10T06:33:09;11.05;;;4.97;;
28343;SDS011;15597;50.914;6.638;2023-05-10T06:35:35;9.13;;;4.07;;
28343;SDS011;15597;50.914;6.638;2023-05-10T06:38:01;11.07;;;4.65;;
28343;SDS011;15597;50.914;6.638;2023-05-10T06:40:27;8.32;;;4.32;;
28343;SDS011;15597;50.914;6.638;2023-05-10T06:42:53;12.88;;;4.68;;
28343;SDS011;15597;50.914;6.638;2023-05-10T06:45:19;10.05;;;5.32;;
28343;SDS011;15597;50.914;6.638;2023-05-10T06:47:45;9.68;;;4.70;;
28343;SDS011;15597;50.914;6.638;2023-05-10T06:50:11;10.48;;;5.35;;
28343;SDS011;15597;50.914;6.638;2023-05-10T06:52:36;12.48;;;5.40;;
28343;SDS011;15597;50.914;6.638;2023-05-10T06:55:03;7.95;;;3.95;;
28343;SDS011;15597;50.914;6.638;2023-05-10T06:57:29;10.75;;;4.70;;
28343;SDS011;15597;50.914;6.638;2023-05-10T06:59:55;13.65;;;6.10;;
28343;SDS011;15597;50.914;6.638;2023-05-10T07:02:21;11.98;;;6.22;;
28343;SDS011;15597;50.914;6.638;2023-05-10T07:04:47;11.02;;;4.57;;
28343;SDS011;15597;50.914;6.638;2023-05-10T07:07:14;11.55;;;5.05;;
28343;SDS011;15597;50.914;6.638;2023-05-10T07:09:39;8.30;;;4.25;;
28343;SDS011;15597;50.914;6.638;2023-05-10T07:12:05;9.35;;;4.38;;
28343;SDS011;15597;50.914;6.638;2023-05-10T07:14:31;9.38;;;4.63;;
28343;SDS011;15597;50.914;6.638;2023-05-10T07:16:56;14.00;;;6.15;;
28343;SDS011;15597;50.914;6.638;2023-05-10T07:19:22;8.77;;;4.30;;
28343;SDS011;15597;50.914;6.638;2023-05-10T07:21:47;12.75;;;6.20;;
28343;SDS011;15597;50.914;6.638;2023-05-10T07:24:13;9.68;;;5.15;;
28343;SDS011;15597;50.914;6.638;2023-05-10T07:26:38;12.57;;;5.68;;
28343;SDS011;15597;50.914;6.638;2023-05-10T07:29:04;14.13;;;6.25;;
28343;SDS011;15597;50.914;6.638;2023-05-10T07:31:29;16.15;;;6.88;;
28343;SDS011;15597;50.914;6.638;2023-05-10T07:33:55;8.45;;;4.43;;
28343;SDS011;15597;50.914;6.638;2023-05-10T07:36:23;11.98;;;5.45;;
28343;SDS011;15597;50.914;6.638;2023-05-10T07:38:49;7.85;;;4.10;;
28343;SDS011;15597;50.914;6.638;2023-05-10T07:41:15;8.55;;;4.20;;
28343;SDS011;15597;50.914;6.638;2023-05-10T07:43:40;9.23;;;4.43;;
28343;SDS011;15597;50.914;6.638;2023-05-10T07:46:06;7.97;;;3.90;;
28343;SDS011;15597;50.914;6.638;2023-05-10T07:48:31;7.70;;;4.13;;
28343;SDS011;15597;50.914;6.638;2023-05-10T07:50:57;7.60;;;3.60;;
28343;SDS011;15597;50.914;6.638;2023-05-10T07:53:22;5.95;;;3.35;;
28343;SDS011;15597;50.914;6.638;2023-05-10T07:55:51;6.45;;;3.47;;
28343;SDS011;15597;50.914;6.638;2023-05-10T07:58:22;7.35;;;3.45;;
28343;SDS011;15597;50.914;6.638;2023-05-10T08:00:47;5.50;;;2.85;;
28343;SDS011;15597;50.914;6.638;2023-05-10T08:03:14;6.60;;;3.55;;
28343;SDS011;15597;50.914;6.638;2023-05-10T08:05:40;6.72;;;3.05;;
28343;SDS011;15597;50.914;6.638;2023-05-10T08:08:05;8.77;;;3.30;;
28343;SDS011;15597;50.914;6.638;2023-05-10T08:10:31;6.78;;;3.45;;
28343;SDS011;15597;50.914;6.638;2023-05-10T08:12:57;8.60;;;3.53;;
28343;SDS011;15597;50.914;6.638;2023-05-10T08:15:23;7.57;;;3.47;;
28343;SDS011;15597;50.914;6.638;2023-05-10T08:17:50;6.40;;;3.30;;
28343;SDS011;15597;50.914;6.638;2023-05-10T08:20:17;7.10;;;3.20;;
28343;SDS011;15597;50.914;6.638;2023-05-10T08:22:47;5.57;;;3.25;;
28343;SDS011;15597;50.914;6.638;2023-05-10T08:25:12;5.78;;;2.80;;
28343;SDS011;15597;50.914;6.638;2023-05-10T08:27:38;5.53;;;3.22;;
28343;SDS011;15597;50.914;6.638;2023-05-10T08:30:03;7.15;;;3.38;;
28343;SDS011;15597;50.914;6.638;2023-05-10T08:32:30;7.05;;;3.33;;
28343;SDS011;15597;50.914;6.638;2023-05-10T08:34:56;7.18;;;3.10;;
28343;SDS011;15597;50.914;6.638;2023-05-10T08:37:23;6.35;;;3.47;;
28343;SDS011;15597;50.914;6.638;2023-05-10T08:39:48;5.43;;;3.22;;
28343;SDS011;15597;50.914;6.638;2023-05-10T08:42:16;5.80;;;3.08;;
28343;SDS011;15597;50.914;6.638;2023-05-10T08:44:45;5.72;;;2.85;;
28343;SDS011;15597;50.914;6.638;2023-05-10T08:49:40;6.75;;;3.40;;
28343;SDS011;15597;50.914;6.638;2023-05-10T08:52:06;5.43;;;2.92;;
28343;SDS011;15597;50.914;6.638;2023-05-10T08:54:33;6.43;;;2.90;;
28343;SDS011;15597;50.914;6.638;2023-05-10T08:56:59;6.68;;;3.10;;
28343;SDS011;15597;50.914;6.638;2023-05-10T08:59:25;5.82;;;2.80;;
28343;SDS011;15597;50.914;6.638;2023-05-10T09:01:51;5.95;;;2.80;;
28343;SDS011;15597;50.914;6.638;2023-05-10T09:06:45;8.93;;;4.20;;
28343;SDS011;15597;50.914;6.638;2023-05-10T09:09:11;7.65;;;3.40;;
28343;SDS011;15597;50.914;6.638;2023-05-10T09:11:37;8.63;;;3.25;;
28343;SDS011;15597;50.914;6.638;2023-05-10T09:14:02;10.48;;;4.70;;
28343;SDS011;15597;50.914;6.638;2023-05-10T09:16:28;8.75;;;4.20;;
28343;SDS011;15597;50.914;6.638;2023-05-10T09:18:54;7.38;;;3.80;;
28343;SDS011;15597;50.914;6.638;2023-05-10T09:21:19;10.15;;;3.72;;
28343;SDS011;15597;50.914;6.638;2023-05-10T09:23:45;10.30;;;4.60;;
28343;SDS011;15597;50.914;6.638;2023-05-10T09:26:12;8.25;;;4.38;;
28343;SDS011;15597;50.914;6.638;2023-05-10T09:31:43;10.57;;;4.85;;
28343;SDS011;15597;50.914;6.638;2023-05-10T09:34:11;9.15;;;4.40;;
28343;SDS011;15597;50.914;6.638;2023-05-10T09:36:51;9.77;;;3.60;;
28343;SDS011;15597;50.914;6.638;2023-05-10T09:39:33;7.85;;;3.50;;
28343;SDS011;15597;50.914;6.638;2023-05-10T09:42:01;8.63;;;4.47;;
28343;SDS011;15597;50.914;6.638;2023-05-10T09:44:29;8.40;;;4.07;;
28343;SDS011;15597;50.914;6.638;2023-05-10T09:46:55;8.38;;;4.30;;
28343;SDS011;15597;50.914;6.638;2023-05-10T09:49:21;12.32;;;5.95;;
28343;SDS011;15597;50.914;6.638;2023-05-10T09:51:47;9.73;;;4.55;;
28343;SDS011;15597;50.914;6.638;2023-05-10T09:54:13;9.00;;;4.38;;
28343;SDS011;15597;50.914;6.638;2023-05-10T09:56:40;17.52;;;6.97;;
28343;SDS011;15597;50.914;6.638;2023-05-10T09:59:07;12.52;;;6.55;;
28343;SDS011;15597;50.914;6.638;2023-05-10T10:01:35;11.65;;;5.10;;
28343;SDS011;15597;50.914;6.638;2023-05-10T10:04:05;8.57;;;4.28;;
28343;SDS011;15597;50.914;6.638;2023-05-10T10:06:35;12.95;;;5.90;;
28343;SDS011;15597;50.914;6.638;2023-05-10T10:09:02;10.50;;;4.97;;
28343;SDS011;15597;50.914;6.638;2023-05-10T10:11:27;11.73;;;5.72;;
28343;SDS011;15597;50.914;6.638;2023-05-10T10:13:53;8.48;;;4.00;;
28343;SDS011;15597;50.914;6.638;2023-05-10T10:16:19;9.65;;;4.35;;
28343;SDS011;15597;50.914;6.638;2023-05-10T10:18:45;7.57;;;3.60;;
28343;SDS011;15597;50.914;6.638;2023-05-10T10:21:12;10.48;;;3.38;;
28343;SDS011;15597;50.914;6.638;2023-05-10T10:23:38;6.85;;;3.38;;
28343;SDS011;15597;50.914;6.638;2023-05-10T10:26:04;8.35;;;3.17;;
28343;SDS011;15597;50.914;6.638;2023-05-10T10:31:15;6.40;;;2.80;;
28343;SDS011;15597;50.914;6.638;2023-05-10T10:33:58;7.63;;;3.40;;
28343;SDS011;15597;50.914;6.638;2023-05-10T10:36:27;6.60;;;3.53;;
28343;SDS011;15597;50.914;6.638;2023-05-10T10:38:56;6.55;;;3.22;;
28343;SDS011;15597;50.914;6.638;2023-05-10T10:41:35;5.88;;;2.83;;
28343;SDS011;15597;50.914;6.638;2023-05-10T10:49:38;6.40;;;3.22;;
28343;SDS011;15597;50.914;6.638;2023-05-10T10:52:28;6.13;;;2.70;;
28343;SDS011;15597;50.914;6.638;2023-05-10T10:54:59;5.50;;;2.88;;
28343;SDS011;15597;50.914;6.638;2023-05-10T10:57:27;5.05;;;2.80;;
28343;SDS011;15597;50.914;6.638;2023-05-10T11:02:44;6.72;;;3.03;;
28343;SDS011;15597;50.914;6.638;2023-05-10T11:05:23;5.13;;;2.60;;
28343;SDS011;15597;50.914;6.638;2023-05-10T11:10:23;4.85;;;2.55;;
28343;SDS011;15597;50.914;6.638;2023-05-10T11:13:02;5.45;;;2.45;;
28343;SDS011;15597;50.914;6.638;2023-05-10T11:15:32;4.38;;;2.42;;
28343;SDS011;15597;50.914;6.638;2023-05-10T11:17:59;5.57;;;2.60;;
28343;SDS011;15597;50.914;6.638;2023-05-10T11:20:41;4.72;;;2.13;;
28343;SDS011;15597;50.914;6.638;2023-05-10T11:23:13;5.55;;;2.42;;
28343;SDS011;15597;50.914;6.638;2023-05-10T11:25:44;4.38;;;2.13;;
28343;SDS011;15597;50.914;6.638;2023-05-10T11:28:11;4.53;;;2.28;;
28343;SDS011;15597;50.914;6.638;2023-05-10T11:30:38;5.45;;;2.47;;
28343;SDS011;15597;50.914;6.638;2023-05-10T11:33:05;4.45;;;2.33;;
28343;SDS011;15597;50.914;6.638;2023-05-10T11:35:31;5.05;;;2.33;;
28343;SDS011;15597;50.914;6.638;2023-05-10T11:38:04;4.22;;;2.03;;
28343;SDS011;15597;50.914;6.638;2023-05-10T11:40:36;4.93;;;1.95;;
28343;SDS011;15597;50.914;6.638;2023-05-10T11:43:03;4.40;;;2.03;;
28343;SDS011;15597;50.914;6.638;2023-05-10T11:45:29;4.47;;;2.17;;
28343;SDS011;15597;50.914;6.638;2023-05-10T11:47:57;3.55;;;2.05;;
28343;SDS011;15597;50.914;6.638;2023-05-10T11:50:23;4.03;;;2.10;;
28343;SDS011;15597;50.914;6.638;2023-05-10T11:52:52;4.75;;;2.00;;
28343;SDS011;15597;50.914;6.638;2023-05-10T11:55:20;3.85;;;1.80;;
28343;SDS011;15597;50.914;6.638;2023-05-10T11:57:45;3.35;;;1.63;;
28343;SDS011;15597;50.914;6.638;2023-05-10T12:00:12;4.38;;;2.00;;
28343;SDS011;15597;50.914;6.638;2023-05-10T12:02:40;3.92;;;1.73;;
28343;SDS011;15597;50.914;6.638;2023-05-10T12:05:06;3.33;;;1.60;;
28343;SDS011;15597;50.914;6.638;2023-05-10T12:07:32;3.90;;;1.80;;
28343;SDS011;15597;50.914;6.638;2023-05-10T12:10:08;3.95;;;1.90;;
28343;SDS011;15597;50.914;6.638;2023-05-10T12:12:45;4.20;;;1.92;;
28343;SDS011;15597;50.914;6.638;2023-05-10T12:15:18;4.20;;;1.88;;
28343;SDS011;15597;50.914;6.638;2023-05-10T12:17:46;3.95;;;1.70;;
28343;SDS011;15597;50.914;6.638;2023-05-10T12:20:13;3.30;;;1.70;;
28343;SDS011;15597;50.914;6.638;2023-05-10T12:22:57;4.55;;;1.73;;
28343;SDS011;15597;50.914;6.638;2023-05-10T12:25:24;3.30;;;1.60;;
28343;SDS011;15597;50.914;6.638;2023-05-10T12:27:56;3.55;;;1.45;;
28343;SDS011;15597;50.914;6.638;2023-05-10T12:30:24;4.13;;;1.63;;
28343;SDS011;15597;50.914;6.638;2023-05-10T12:32:50;3.75;;;1.50;;
28343;SDS011;15597;50.914;6.638;2023-05-10T12:35:16;3.10;;;1.42;;
28343;SDS011;15597;50.914;6.638;2023-05-10T12:37:44;3.75;;;1.38;;
28343;SDS011;15597;50.914;6.638;2023-05-10T12:40:10;3.50;;;1.35;;
28343;SDS011;15597;50.914;6.638;2023-05-10T12:42:36;4.47;;;1.20;;
28343;SDS011;15597;50.914;6.638;2023-05-10T12:45:03;6.40;;;1.85;;
28343;SDS011;15597;50.914;6.638;2023-05-10T12:47:31;10.65;;;3.58;;
28343;SDS011;15597;50.914;6.638;2023-05-10T12:49:57;4.60;;;1.80;;
28343;SDS011;15597;50.914;6.638;2023-05-10T12:52:24;5.07;;;1.35;;
28343;SDS011;15597;50.914;6.638;2023-05-10T12:54:50;3.30;;;1.48;;
28343;SDS011;15597;50.914;6.638;2023-05-10T12:57:15;3.05;;;1.23;;
28343;SDS011;15597;50.914;6.638;2023-05-10T12:59:41;3.10;;;1.38;;
28343;SDS011;15597;50.914;6.638;2023-05-10T13:02:06;2.90;;;1.30;;
28343;SDS011;15597;50.914;6.638;2023-05-10T13:04:32;4.97;;;1.52;;
28343;SDS011;15597;50.914;6.638;2023-05-10T13:06:58;2.88;;;1.20;;
28343;SDS011;15597;50.914;6.638;2023-05-10T13:09:26;5.18;;;1.73;;
28343;SDS011;15597;50.914;6.638;2023-05-10T13:11:54;3.20;;;1.17;;
28343;SDS011;15597;50.914;6.638;2023-05-10T13:14:20;3.08;;;1.30;;
28343;SDS011;15597;50.914;6.638;2023-05-10T13:16:46;3.28;;;1.40;;
28343;SDS011;15597;50.914;6.638;2023-05-10T13:19:12;2.90;;;1.27;;
28343;SDS011;15597;50.914;6.638;2023-05-10T13:21:42;3.80;;;1.50;;
28343;SDS011;15597;50.914;6.638;2023-05-10T13:24:09;3.10;;;1.45;;
28343;SDS011;15597;50.914;6.638;2023-05-10T13:26:35;3.85;;;1.60;;
28343;SDS011;15597;50.914;6.638;2023-05-10T13:29:01;3.40;;;1.40;;
28343;SDS011;15597;50.914;6.638;2023-05-10T13:31:27;3.00;;;1.30;;
28343;SDS011;15597;50.914;6.638;2023-05-10T13:33:53;3.88;;;1.55;;
28343;SDS011;15597;50.914;6.638;2023-05-10T13:36:18;4.32;;;1.45;;
28343;SDS011;15597;50.914;6.638;2023-05-10T13:38:44;4.35;;;1.52;;
28343;SDS011;15597;50.914;6.638;2023-05-10T13:41:09;3.25;;;1.40;;
28343;SDS011;15597;50.914;6.638;2023-05-10T13:43:35;3.90;;;1.27;;
28343;SDS011;15597;50.914;6.638;2023-05-10T13:46:01;4.45;;;1.63;;
28343;SDS011;15597;50.914;6.638;2023-05-10T13:48:27;3.28;;;1.40;;
28343;SDS011;15597;50.914;6.638;2023-05-10T13:50:53;3.05;;;1.30;;
28343;SDS011;15597;50.914;6.638;2023-05-10T13:53:19;5.95;;;1.35;;
28343;SDS011;15597;50.914;6.638;2023-05-10T13:55:44;4.55;;;1.38;;
28343;SDS011;15597;50.914;6.638;2023-05-10T13:58:10;3.30;;;1.33;;
28343;SDS011;15597;50.914;6.638;2023-05-10T14:00:35;3.67;;;1.40;;
28343;SDS011;15597;50.914;6.638;2023-05-10T14:03:01;4.40;;;1.50;;
28343;SDS011;15597;50.914;6.638;2023-05-10T14:05:27;3.63;;;1.50;;
28343;SDS011;15597;50.914;6.638;2023-05-10T14:07:52;4.05;;;1.70;;
28343;SDS011;15597;50.914;6.638;2023-05-10T14:10:18;3.38;;;1.58;;
28343;SDS011;15597;50.914;6.638;2023-05-10T14:12:45;3.13;;;1.73;;
28343;SDS011;15597;50.914;6.638;2023-05-10T14:15:10;3.35;;;1.58;;
28343;SDS011;15597;50.914;6.638;2023-05-10T14:17:36;2.95;;;1.20;;
28343;SDS011;15597;50.914;6.638;2023-05-10T14:20:02;3.33;;;1.40;;
28343;SDS011;15597;50.914;6.638;2023-05-10T14:22:29;4.22;;;1.73;;
28343;SDS011;15597;50.914;6.638;2023-05-10T14:24:54;3.40;;;1.38;;
28343;SDS011;15597;50.914;6.638;2023-05-10T14:27:20;5.78;;;1.80;;
28343;SDS011;15597;50.914;6.638;2023-05-10T14:29:46;4.20;;;1.75;;
28343;SDS011;15597;50.914;6.638;2023-05-10T14:32:12;3.63;;;1.50;;
28343;SDS011;15597;50.914;6.638;2023-05-10T14:34:38;6.45;;;2.17;;
28343;SDS011;15597;50.914;6.638;2023-05-10T14:37:03;4.45;;;1.98;;
28343;SDS011;15597;50.914;6.638;2023-05-10T14:39:29;4.93;;;1.77;;
28343;SDS011;15597;50.914;6.638;2023-05-10T14:41:55;4.78;;;1.90;;
28343;SDS011;15597;50.914;6.638;2023-05-10T14:44:22;4.10;;;1.50;;
28343;SDS011;15597;50.914;6.638;2023-05-10T14:46:49;5.80;;;2.22;;
28343;SDS011;15597;50.914;6.638;2023-05-10T14:49:14;4.00;;;1.67;;
28343;SDS011;15597;50.914;6.638;2023-05-10T14:51:40;3.95;;;1.40;;
28343;SDS011;15597;50.914;6.638;2023-05-10T14:54:05;3.58;;;1.60;;
28343;SDS011;15597;50.914;6.638;2023-05-10T14:56:31;3.97;;;1.50;;
28343;SDS011;15597;50.914;6.638;2023-05-10T14:58:57;4.18;;;1.42;;
28343;SDS011;15597;50.914;6.638;2023-05-10T15:01:23;4.03;;;1.45;;
28343;SDS011;15597;50.914;6.638;2023-05-10T15:03:48;3.38;;;1.20;;
28343;SDS011;15597;50.914;6.638;2023-05-10T15:06:14;3.67;;;1.40;;
28343;SDS011;15597;50.914;6.638;2023-05-10T15:08:43;4.15;;;1.20;;
28343;SDS011;15597;50.914;6.638;2023-05-10T15:11:08;3.65;;;1.40;;
28343;SDS011;15597;50.914;6.638;2023-05-10T15:13:34;3.13;;;1.40;;
28343;SDS011;15597;50.914;6.638;2023-05-10T15:16:00;3.35;;;1.30;;
28343;SDS011;15597;50.914;6.638;2023-05-10T15:18:26;3.45;;;1.30;;
28343;SDS011;15597;50.914;6.638;2023-05-10T15:20:52;2.92;;;1.20;;
28343;SDS011;15597;50.914;6.638;2023-05-10T15:23:17;3.67;;;1.60;;